createdAt,value
2018-12-17T00:00:05.350Z,27.2
2018-12-17T00:02:05.747Z,27.3
2018-12-17T00:04:05.513Z,27.3
2018-12-17T00:06:10.796Z,27.3
2018-12-17T00:08:05.136Z,27.3
2018-12-17T00:10:08.435Z,27.3
2018-12-17T00:12:05.167Z,27.3
2018-12-17T00:14:08.380Z,27.3
2018-12-17T00:16:05.101Z,27.2
2018-12-17T00:18:05.649Z,27.2
2018-12-17T00:20:05.613Z,27.2
2018-12-17T00:22:07.831Z,27.4
2018-12-17T00:24:05.495Z,27.2
2018-12-17T00:26:05.230Z,27.3
2018-12-17T00:28:08.785Z,27.4
2018-12-17T00:30:06.044Z,27.4
2018-12-17T00:32:05.810Z,27.3
2018-12-17T00:34:05.500Z,27.2
2018-12-17T00:36:05.198Z,27.2
2018-12-17T00:38:05.923Z,27.2
2018-12-17T00:40:08.414Z,27.3
2018-12-17T00:42:07.785Z,27.2
2018-12-17T00:44:05.084Z,27.3
2018-12-17T00:46:05.797Z,27.2
2018-12-17T00:48:05.478Z,27.1
2018-12-17T00:50:05.204Z,27.3
2018-12-17T00:52:06.224Z,27.3
2018-12-17T00:54:05.890Z,27.3
2018-12-17T00:56:05.070Z,27.1
2018-12-17T00:58:05.790Z,27.3
2018-12-17T01:00:05.519Z,27.2
2018-12-17T01:02:07.736Z,27.1
2018-12-17T01:04:07.918Z,27.3
2018-12-17T01:06:08.119Z,27.1
2018-12-17T01:08:05.853Z,27.1
2018-12-17T01:10:05.646Z,27.1
2018-12-17T01:12:05.342Z,27.1
2018-12-17T01:14:05.066Z,27.3
2018-12-17T01:16:05.775Z,27.3
2018-12-17T01:18:05.702Z,27.3
2018-12-17T01:20:08.063Z,27.2
2018-12-17T01:22:08.353Z,27.2
2018-12-17T01:24:05.019Z,27.2
2018-12-17T01:26:05.748Z,27.2
2018-12-17T01:28:05.461Z,27.2
2018-12-17T01:30:05.135Z,27.2
2018-12-17T01:32:08.373Z,27.2
2018-12-17T01:34:07.666Z,27.3
2018-12-17T01:36:10.927Z,27.3
2018-12-17T01:38:05.696Z,27.3
2018-12-17T01:40:05.390Z,27.3
2018-12-17T01:42:05.635Z,27.3
2018-12-17T01:44:05.325Z,27.3
2018-12-17T01:46:11.182Z,27.2
2018-12-17T01:48:05.811Z,27.2
2018-12-17T01:50:05.065Z,27.2
2018-12-17T01:52:05.391Z,27.3
2018-12-17T01:54:05.071Z,27.1
2018-12-17T01:56:05.843Z,27.1
2018-12-17T01:58:05.751Z,27.3
2018-12-17T02:00:05.504Z,27.3
2018-12-17T02:02:05.170Z,27.3
2018-12-17T02:04:05.878Z,27.2
2018-12-17T02:06:05.570Z,27.3
2018-12-17T02:08:07.753Z,27.2
2018-12-17T02:10:05.449Z,27.2
2018-12-17T02:12:05.231Z,27.2
2018-12-17T02:14:05.941Z,27.2
2018-12-17T02:16:05.704Z,27.2
2018-12-17T02:18:05.586Z,27.2
2018-12-17T02:20:07.734Z,27.2
2018-12-17T02:22:05.417Z,27.2
2018-12-17T02:24:08.188Z,27.1
2018-12-17T02:26:05.901Z,27.1
2018-12-17T02:28:05.585Z,27.2
2018-12-17T02:30:05.851Z,27.2
2018-12-17T02:32:10.659Z,27.2
2018-12-17T02:34:05.904Z,27.2
2018-12-17T02:36:10.729Z,27.2
2018-12-17T02:38:15.570Z,27.2
2018-12-17T02:40:05.313Z,27.2
2018-12-17T02:42:08.592Z,27.2
2018-12-17T02:44:05.386Z,27.2
2018-12-17T02:46:10.406Z,27
2018-12-17T02:48:05.070Z,27
2018-12-17T02:50:05.733Z,27.2
2018-12-17T02:52:06.227Z,27.3
2018-12-17T02:54:05.930Z,27.2
2018-12-17T02:56:08.144Z,27.2
2018-12-17T02:58:05.890Z,27
2018-12-17T03:00:05.569Z,27.1
2018-12-17T03:02:10.861Z,27.3
2018-12-17T03:04:05.326Z,27.1
2018-12-17T03:06:05.518Z,27.1
2018-12-17T03:08:05.717Z,27.2
2018-12-17T03:10:10.548Z,27.1
2018-12-17T03:12:07.782Z,27.1
2018-12-17T03:14:08.045Z,27.1
2018-12-17T03:16:08.294Z,27.1
2018-12-17T03:18:15.856Z,27.2
2018-12-17T03:20:05.593Z,27.1
2018-12-17T03:22:08.049Z,27.2
2018-12-17T03:24:05.812Z,27.2
2018-12-17T03:26:05.488Z,27.1
2018-12-17T03:28:05.695Z,27.3
2018-12-17T03:30:05.355Z,27.1
2018-12-17T03:32:05.084Z,27.2
2018-12-17T03:34:08.325Z,27.3
2018-12-17T03:36:04.988Z,27.1
2018-12-17T03:38:08.242Z,27.2
2018-12-17T03:40:08.518Z,27.1
2018-12-17T03:42:05.183Z,27.2
2018-12-17T03:44:05.900Z,27.2
2018-12-17T03:46:08.210Z,27.1
2018-12-17T03:48:08.501Z,27.2
2018-12-17T03:50:05.150Z,27.1
2018-12-17T03:52:05.867Z,27.1
2018-12-17T03:54:05.537Z,27.1
2018-12-17T03:56:07.722Z,27.1
2018-12-17T03:58:05.381Z,27.1
2018-12-17T04:00:07.603Z,27.1
2018-12-17T04:02:05.320Z,27.1
2018-12-17T04:04:05.168Z,27.2
2018-12-17T04:06:05.431Z,27.1
2018-12-17T04:08:05.103Z,27.1
2018-12-17T04:10:05.902Z,27.3
2018-12-17T04:12:05.573Z,27.3
2018-12-17T04:14:07.739Z,27.1
2018-12-17T04:16:08.143Z,27.1
2018-12-17T04:18:05.720Z,27.1
2018-12-17T04:20:05.432Z,27.1
2018-12-17T04:22:05.360Z,27.3
2018-12-17T04:24:05.156Z,27.1
2018-12-17T04:26:05.878Z,27.2
2018-12-17T04:28:05.421Z,27.2
2018-12-17T04:30:10.144Z,27.1
2018-12-17T04:32:05.979Z,27.2
2018-12-17T04:34:05.674Z,27.2
2018-12-17T04:36:08.482Z,27.2
2018-12-17T04:38:05.224Z,27
2018-12-17T04:40:06.144Z,27
2018-12-17T04:42:05.798Z,27.2
2018-12-17T04:44:08.078Z,27.2
2018-12-17T04:46:08.392Z,27.3
2018-12-17T04:48:05.175Z,27.3
2018-12-17T04:50:08.016Z,27.3
2018-12-17T04:52:05.782Z,27.3
2018-12-17T04:54:07.967Z,27.3
2018-12-17T04:56:05.627Z,27.3
2018-12-17T04:58:06.178Z,27.4
2018-12-17T05:00:05.974Z,27.4
2018-12-17T05:02:06.050Z,27.3
2018-12-17T05:04:05.761Z,27.4
2018-12-17T05:06:05.484Z,27.5
2018-12-17T05:08:05.225Z,27.5
2018-12-17T05:10:11.207Z,27.4
2018-12-17T05:12:05.899Z,27.5
2018-12-17T05:14:10.246Z,27.5
2018-12-17T05:16:05.924Z,27.5
2018-12-17T05:18:05.797Z,27.4
2018-12-17T05:20:05.485Z,27.5
2018-12-17T05:22:06.107Z,27.5
2018-12-17T05:24:05.840Z,27.4
2018-12-17T05:26:08.009Z,27.5
2018-12-17T05:28:08.227Z,27.5
2018-12-17T05:30:05.982Z,27.5
2018-12-17T05:32:05.667Z,27.5
2018-12-17T05:34:08.417Z,27.6
2018-12-17T05:36:05.216Z,27.5
2018-12-17T05:38:07.946Z,27.4
2018-12-17T05:40:08.435Z,27.4
2018-12-17T05:42:06.728Z,27.4
2018-12-17T05:44:09.428Z,27.5
2018-12-17T05:46:05.392Z,27.4
2018-12-17T05:48:08.220Z,27.6
2018-12-17T05:50:11.000Z,27.5
2018-12-17T05:52:05.721Z,27.5
2018-12-17T05:54:05.393Z,27.5
2018-12-17T05:56:05.100Z,27.4
2018-12-17T05:58:08.280Z,27.4
2018-12-17T06:00:05.985Z,27.4
2018-12-17T06:02:08.306Z,27.4
2018-12-17T06:04:06.019Z,27.4
2018-12-17T06:06:05.711Z,27.4
2018-12-17T06:08:05.403Z,27.6
2018-12-17T06:10:05.224Z,27.3
2018-12-17T06:12:13.589Z,27.4
2018-12-17T06:14:05.272Z,27.4
2018-12-17T06:16:05.949Z,27.5
2018-12-17T06:18:05.792Z,27.5
2018-12-17T06:20:13.025Z,27.4
2018-12-17T06:22:05.220Z,27.4
2018-12-17T06:24:10.961Z,27.4
2018-12-17T06:26:05.597Z,27.4
2018-12-17T06:28:05.402Z,27.5
2018-12-17T06:30:07.676Z,27.4
2018-12-17T06:32:07.961Z,27.4
2018-12-17T06:34:05.695Z,27.4
2018-12-17T06:36:05.380Z,27.3
2018-12-17T06:38:13.173Z,27.4
2018-12-17T06:40:10.742Z,27.4
2018-12-17T06:42:05.457Z,27.3
2018-12-17T06:44:07.650Z,27.4
2018-12-17T06:46:07.974Z,27.4
2018-12-17T06:48:05.602Z,27.5
2018-12-17T06:50:05.223Z,27.4
2018-12-17T06:52:05.912Z,27.3
2018-12-17T06:54:05.623Z,27.4
2018-12-17T06:56:05.391Z,27.5
2018-12-17T06:58:05.118Z,27.4
2018-12-17T07:00:10.851Z,27.5
2018-12-17T07:02:05.515Z,27.5
2018-12-17T07:04:06.240Z,27.4
2018-12-17T07:06:05.602Z,27.6
2018-12-17T07:08:05.294Z,27.4
2018-12-17T07:10:10.054Z,27.6
2018-12-17T07:12:10.518Z,27.5
2018-12-17T07:14:07.709Z,27.5
2018-12-17T07:16:08.211Z,27.5
2018-12-17T07:18:05.150Z,27.5
2018-12-17T07:20:05.848Z,27.5
2018-12-17T07:22:05.513Z,27.5
2018-12-17T07:24:05.798Z,27.5
2018-12-17T07:26:05.481Z,27.5
2018-12-17T07:28:05.417Z,27.5
2018-12-17T07:30:05.674Z,27.5
2018-12-17T07:32:05.382Z,27.5
2018-12-17T07:34:05.068Z,27.5
2018-12-17T07:36:08.328Z,27.5
2018-12-17T07:38:09.484Z,27.5
2018-12-17T07:40:05.196Z,27.4
2018-12-17T07:42:13.981Z,27.5
2018-12-17T07:44:10.790Z,27.5
2018-12-17T07:46:05.492Z,27.5
2018-12-17T07:48:12.766Z,27.5
2018-12-17T07:50:05.700Z,27.5
2018-12-17T07:52:16.045Z,27.5
2018-12-17T07:54:05.793Z,27.5
2018-12-17T07:56:05.563Z,27.6
2018-12-17T07:58:05.343Z,27.6
2018-12-17T08:00:05.993Z,27.6
2018-12-17T08:02:05.702Z,27.4
2018-12-17T08:04:05.443Z,27.6
2018-12-17T08:06:05.230Z,27.5
2018-12-17T08:08:05.971Z,27.5
2018-12-17T08:10:05.697Z,27.5
2018-12-17T08:12:05.965Z,27.5
2018-12-17T08:14:10.820Z,27.5
2018-12-17T08:16:05.603Z,27.3
2018-12-17T08:18:05.592Z,27.6
2018-12-17T08:20:05.925Z,27.4
2018-12-17T08:22:05.179Z,27.6
2018-12-17T08:24:08.393Z,27.6
2018-12-17T08:26:07.581Z,27.7
2018-12-17T08:28:10.589Z,27.7
2018-12-17T08:30:05.238Z,27.7
2018-12-17T08:32:05.913Z,27.6
2018-12-17T08:34:05.593Z,27.6
2018-12-17T08:36:05.282Z,27.6
2018-12-17T08:38:11.060Z,27.6
2018-12-17T08:40:05.725Z,27.6
2018-12-17T08:42:05.440Z,27.6
2018-12-17T08:44:05.446Z,27.6
2018-12-17T08:46:05.694Z,27.6
2018-12-17T08:48:07.923Z,27.7
2018-12-17T08:50:05.649Z,27.7
2018-12-17T08:52:05.982Z,27.5
2018-12-17T08:54:05.658Z,27.5
2018-12-17T08:56:05.863Z,27.5
2018-12-17T08:58:05.529Z,27.5
2018-12-17T09:00:11.551Z,27.5
2018-12-17T09:02:05.341Z,27.5
2018-12-17T09:04:05.091Z,27.5
2018-12-17T09:06:05.798Z,27.6
2018-12-17T09:08:05.492Z,27.6
2018-12-17T09:10:05.168Z,27.5
2018-12-17T09:12:05.863Z,27.6
2018-12-17T09:14:08.213Z,27.6
2018-12-17T09:16:05.423Z,27.6
2018-12-17T09:18:08.370Z,27.6
2018-12-17T09:20:07.569Z,27.7
2018-12-17T09:22:10.294Z,27.7
2018-12-17T09:24:06.067Z,27.7
2018-12-17T09:26:05.899Z,27.7
2018-12-17T09:28:05.592Z,27.6
2018-12-17T09:30:05.300Z,27.6
2018-12-17T09:32:06.038Z,27.7
2018-12-17T09:34:08.396Z,27.5
2018-12-17T09:36:07.673Z,27.6
2018-12-17T09:38:05.390Z,27.6
2018-12-17T09:40:05.561Z,27.6
2018-12-17T09:42:05.503Z,27.6
2018-12-17T09:44:05.875Z,27.6
2018-12-17T09:46:05.305Z,27.6
2018-12-17T09:48:06.023Z,27.6
2018-12-17T09:50:05.690Z,27.6
2018-12-17T09:52:05.915Z,27.6
2018-12-17T09:54:05.190Z,27.6
2018-12-17T09:56:05.875Z,27.6
2018-12-17T09:58:08.087Z,27.6
2018-12-17T10:00:06.018Z,27.6
2018-12-17T10:02:05.724Z,27.6
2018-12-17T10:04:05.478Z,27.6
2018-12-17T10:06:05.168Z,27.6
2018-12-17T10:08:05.382Z,27.6
2018-12-17T10:10:05.210Z,27.7
2018-12-17T10:12:06.189Z,27.7
2018-12-17T10:14:05.843Z,27.7
2018-12-17T10:16:05.498Z,27.9
2018-12-17T10:18:06.169Z,27.8
2018-12-17T10:20:05.926Z,27.8
2018-12-17T10:22:05.139Z,27.8
2018-12-17T10:24:05.890Z,27.8
2018-12-17T10:26:08.123Z,27.9
2018-12-17T10:28:05.792Z,27.7
2018-12-17T10:30:05.463Z,27.9
2018-12-17T10:32:05.185Z,27.9
2018-12-17T10:34:05.931Z,27.8
2018-12-17T10:36:08.258Z,27.8
2018-12-17T10:38:05.942Z,27.9
2018-12-17T10:40:05.642Z,27.9
2018-12-17T10:42:05.385Z,27.8
2018-12-17T10:44:10.121Z,27.9
2018-12-17T10:46:05.774Z,27.7
2018-12-17T10:48:05.461Z,27.9
2018-12-17T10:50:05.329Z,27.8
2018-12-17T10:52:05.032Z,27.8
2018-12-17T10:54:08.246Z,27.6
2018-12-17T10:56:13.576Z,27.7
2018-12-17T10:58:05.797Z,27.7
2018-12-17T11:00:05.516Z,27.6
2018-12-17T11:02:05.189Z,27.7
2018-12-17T11:04:05.917Z,27.7
2018-12-17T11:06:05.859Z,27.7
2018-12-17T11:08:05.555Z,27.7
2018-12-17T11:10:05.268Z,27.7
2018-12-17T11:12:05.961Z,27.8
2018-12-17T11:14:05.695Z,27.9
2018-12-17T11:16:05.384Z,27.8
2018-12-17T11:18:05.389Z,27.8
2018-12-17T11:20:05.111Z,27.8
2018-12-17T11:22:07.977Z,27.9
2018-12-17T11:24:05.724Z,27.8
2018-12-17T11:26:05.435Z,27.8
2018-12-17T11:28:05.164Z,27.8
2018-12-17T11:30:05.889Z,27.8
2018-12-17T11:32:11.977Z,27.8
2018-12-17T11:34:10.714Z,27.9
2018-12-17T11:36:10.545Z,27.8
2018-12-17T11:38:05.287Z,28
2018-12-17T11:40:11.037Z,27.8
2018-12-17T11:42:08.325Z,27.8
2018-12-17T11:44:07.548Z,28
2018-12-17T11:46:05.797Z,28
2018-12-17T11:48:05.517Z,28.2
2018-12-17T11:50:05.158Z,27.9
2018-12-17T11:52:05.871Z,28
2018-12-17T11:54:05.616Z,28
2018-12-17T11:56:05.567Z,28
2018-12-17T11:58:05.272Z,28
2018-12-17T12:00:05.329Z,28.1
2018-12-17T12:02:05.140Z,28
2018-12-17T12:04:05.815Z,28
2018-12-17T12:06:05.549Z,28
2018-12-17T12:08:05.886Z,28.2
2018-12-17T12:10:08.097Z,28.2
2018-12-17T12:12:05.910Z,28.2
2018-12-17T12:14:05.878Z,28
2018-12-17T12:16:05.089Z,28.1
2018-12-17T12:18:05.222Z,28.2
2018-12-17T12:20:06.172Z,28.2
2018-12-17T12:22:05.925Z,28.2
2018-12-17T12:24:05.693Z,28.2
2018-12-17T12:26:07.951Z,28.2
2018-12-17T12:28:05.734Z,28.2
2018-12-17T12:30:08.213Z,28.2
2018-12-17T12:32:08.533Z,28
2018-12-17T12:34:05.395Z,28.2
2018-12-17T12:36:05.718Z,28
2018-12-17T12:38:05.530Z,28.3
2018-12-17T12:40:05.240Z,28.3
2018-12-17T12:42:05.028Z,28.2
2018-12-17T12:44:10.930Z,28.2
2018-12-17T12:46:07.203Z,28.2
2018-12-17T12:48:05.071Z,28.3
2018-12-17T12:50:05.762Z,28.3
2018-12-17T12:52:05.989Z,28.3
2018-12-17T12:54:05.362Z,28.4
2018-12-17T12:56:05.032Z,28.3
2018-12-17T12:58:06.035Z,28.3
2018-12-17T13:00:13.318Z,28.3
2018-12-17T13:02:05.685Z,28.3
2018-12-17T13:04:05.474Z,28.3
2018-12-17T13:06:05.209Z,28.3
2018-12-17T13:08:05.107Z,28.3
2018-12-17T13:10:05.805Z,28.4
2018-12-17T13:12:08.008Z,28.3
2018-12-17T13:14:05.308Z,28.3
2018-12-17T13:16:05.702Z,28.3
2018-12-17T13:18:05.683Z,28.4
2018-12-17T13:20:05.362Z,28.4
2018-12-17T13:22:05.072Z,28.3
2018-12-17T13:24:05.842Z,28.2
2018-12-17T13:26:10.814Z,28.3
2018-12-17T13:28:05.088Z,28.2
2018-12-17T13:30:08.594Z,28.4
2018-12-17T13:32:11.000Z,28.3
2018-12-17T13:34:10.879Z,28.3
2018-12-17T13:36:05.750Z,28.3
2018-12-17T13:38:05.472Z,28.5
2018-12-17T13:40:05.164Z,28.4
2018-12-17T13:42:05.838Z,28.4
2018-12-17T13:44:05.547Z,28.4
2018-12-17T13:46:05.398Z,28.3
2018-12-17T13:48:05.174Z,28.3
2018-12-17T13:50:05.852Z,28.3
2018-12-17T13:52:08.061Z,28.3
2018-12-17T13:54:09.203Z,28.4
2018-12-17T13:56:07.963Z,28.3
2018-12-17T13:58:05.670Z,28.3
2018-12-17T14:00:05.380Z,28.3
2018-12-17T14:02:07.618Z,28.2
2018-12-17T14:04:05.333Z,28.2
2018-12-17T14:06:05.098Z,28.2
2018-12-17T14:08:05.806Z,28.4
2018-12-17T14:10:05.503Z,28.4
2018-12-17T14:12:05.536Z,28.4
2018-12-17T14:14:05.297Z,28.4
2018-12-17T14:16:05.497Z,28.4
2018-12-17T14:18:05.415Z,28.4
2018-12-17T14:20:05.649Z,28.3
2018-12-17T14:22:08.379Z,28.3
2018-12-17T14:24:07.584Z,28.3
2018-12-17T14:26:05.828Z,28.3
2018-12-17T14:28:05.074Z,28.5
2018-12-17T14:30:05.900Z,28.4
2018-12-17T14:32:05.733Z,28.5
2018-12-17T14:34:08.074Z,28.3
2018-12-17T14:36:08.331Z,28.3
2018-12-17T14:38:05.515Z,28.3
2018-12-17T14:40:05.183Z,28.3
2018-12-17T14:42:05.915Z,28.3
2018-12-17T14:44:05.404Z,28.4
2018-12-17T14:46:05.040Z,28.4
2018-12-17T14:48:08.675Z,28.5
2018-12-17T14:50:08.288Z,28.4
2018-12-17T14:52:10.971Z,28.5
2018-12-17T14:54:05.439Z,28.5
2018-12-17T14:56:05.098Z,28.4
2018-12-17T14:58:08.288Z,28.5
2018-12-17T15:00:08.530Z,28.5
2018-12-17T15:02:05.197Z,28.5
2018-12-17T15:04:10.909Z,28.6
2018-12-17T15:06:05.866Z,28.6
2018-12-17T15:08:05.699Z,28.6
2018-12-17T15:10:05.909Z,28.6
2018-12-17T15:12:08.129Z,28.6
2018-12-17T15:14:07.955Z,28.7
2018-12-17T15:16:05.664Z,28.7
2018-12-17T15:18:08.098Z,28.7
2018-12-17T15:20:06.038Z,28.7
2018-12-17T15:22:13.657Z,28.7
2018-12-17T15:24:06.037Z,28.7
2018-12-17T15:26:05.820Z,28.7
2018-12-17T15:28:05.614Z,28.7
2018-12-17T15:30:05.433Z,28.8
2018-12-17T15:32:06.825Z,28.8
2018-12-17T15:34:05.863Z,28.8
2018-12-17T15:36:05.357Z,28.8
2018-12-17T15:38:15.078Z,28.9
2018-12-17T15:40:05.291Z,28.9
2018-12-17T15:42:05.977Z,29
2018-12-17T15:44:05.712Z,28.9
2018-12-17T15:46:05.416Z,28.9
2018-12-17T15:48:05.661Z,28.9
2018-12-17T15:50:05.354Z,29
2018-12-17T15:52:05.054Z,28.9
2018-12-17T15:54:10.872Z,29
2018-12-17T15:56:05.601Z,29
2018-12-17T15:58:06.268Z,29.1
2018-12-17T16:00:08.535Z,29.1
2018-12-17T16:02:05.230Z,29.1
2018-12-17T16:04:10.981Z,28.9
2018-12-17T16:06:05.872Z,29.1
2018-12-17T16:08:05.647Z,29
2018-12-17T16:10:07.946Z,29
2018-12-17T16:12:05.657Z,29
2018-12-17T16:14:05.380Z,29.2
2018-12-17T16:16:07.569Z,29.1
2018-12-17T16:18:08.608Z,29.3
2018-12-17T16:20:05.279Z,29.1
2018-12-17T16:22:05.991Z,29.2
2018-12-17T16:24:07.708Z,29.2
2018-12-17T16:26:05.369Z,29.2
2018-12-17T16:28:05.097Z,29.2
2018-12-17T16:30:05.943Z,29.2
2018-12-17T16:32:05.591Z,29.1
2018-12-17T16:34:10.353Z,29.2
2018-12-17T16:36:05.041Z,29.2
2018-12-17T16:38:05.767Z,29.2
2018-12-17T16:40:05.431Z,29.2
2018-12-17T16:42:05.151Z,29.2
2018-12-17T16:44:05.823Z,29.2
2018-12-17T16:46:08.010Z,29.3
2018-12-17T16:48:05.832Z,29.3
2018-12-17T16:50:05.064Z,29.3
2018-12-17T16:52:05.751Z,29.3
2018-12-17T16:54:05.763Z,29.3
2018-12-17T16:56:05.948Z,29.2
2018-12-17T16:58:10.193Z,29.2
2018-12-17T17:00:05.908Z,29.2
2018-12-17T17:02:05.565Z,29.3
2018-12-17T17:04:05.223Z,29.2
2018-12-17T17:06:10.958Z,29.2
2018-12-17T17:08:05.638Z,29.3
2018-12-17T17:10:05.325Z,29.3
2018-12-17T17:12:05.128Z,29.3
2018-12-17T17:14:05.848Z,29.2
2018-12-17T17:16:05.539Z,29.3
2018-12-17T17:18:05.484Z,29.3
2018-12-17T17:20:05.201Z,29.3
2018-12-17T17:22:10.984Z,29.3
2018-12-17T17:24:05.782Z,29.3
2018-12-17T17:26:05.475Z,29.3
2018-12-17T17:28:05.291Z,29.4
2018-12-17T17:30:08.690Z,29.3
2018-12-17T17:32:12.155Z,29.3
2018-12-17T17:34:05.371Z,29.3
2018-12-17T17:36:06.135Z,29.3
2018-12-17T17:38:05.880Z,29.3
2018-12-17T17:40:05.675Z,29.2
2018-12-17T17:42:07.895Z,29.4
2018-12-17T17:44:05.606Z,29.2
2018-12-17T17:46:07.884Z,29.2
2018-12-17T17:48:08.076Z,29.4
2018-12-17T17:50:05.756Z,29.4
2018-12-17T17:52:05.462Z,29.2
2018-12-17T17:54:05.670Z,29.3
2018-12-17T17:56:05.378Z,29.3
2018-12-17T17:58:08.239Z,29.4
2018-12-17T18:00:05.571Z,29.3
2018-12-17T18:02:05.390Z,29.4
2018-12-17T18:04:07.958Z,29.3
2018-12-17T18:06:05.164Z,29.3
2018-12-17T18:08:05.870Z,29.3
2018-12-17T18:10:08.069Z,29.3
2018-12-17T18:12:05.762Z,29.3
2018-12-17T18:14:07.977Z,29.3
2018-12-17T18:16:05.334Z,29.1
2018-12-17T18:18:05.293Z,29.4
2018-12-17T18:20:04.999Z,29.2
2018-12-17T18:22:05.161Z,29.2
2018-12-17T18:24:05.406Z,29.5
2018-12-17T18:26:05.106Z,29.4
2018-12-17T18:28:05.320Z,29.3
2018-12-17T18:30:05.548Z,29.5
2018-12-17T18:32:05.842Z,29.4
2018-12-17T18:34:05.531Z,29.4
2018-12-17T18:36:05.232Z,29.4
2018-12-17T18:38:05.894Z,29.4
2018-12-17T18:40:05.628Z,29.4
2018-12-17T18:42:05.447Z,29.3
2018-12-17T18:44:05.150Z,29.3
2018-12-17T18:46:08.164Z,29.4
2018-12-17T18:48:05.834Z,29.4
2018-12-17T18:50:05.573Z,29.4
2018-12-17T18:52:12.761Z,29.2
2018-12-17T18:54:06.023Z,29.4
2018-12-17T18:56:08.551Z,29.3
2018-12-17T18:58:10.277Z,29.2
2018-12-17T19:00:06.068Z,29.3
2018-12-17T19:02:06.005Z,29.3
2018-12-17T19:04:05.803Z,29.3
2018-12-17T19:06:05.496Z,29.3
2018-12-17T19:08:05.193Z,29.3
2018-12-17T19:10:05.851Z,29.3
2018-12-17T19:12:05.657Z,29.2
2018-12-17T19:14:10.607Z,29.3
2018-12-17T19:16:05.831Z,29.3
2018-12-17T19:18:05.224Z,29.2
2018-12-17T19:20:05.934Z,29.1
2018-12-17T19:22:05.595Z,29.2
2018-12-17T19:24:05.269Z,29.2
2018-12-17T19:26:08.586Z,29.2
2018-12-17T19:28:07.788Z,29.3
2018-12-17T19:30:05.291Z,29.3
2018-12-17T19:32:05.525Z,29.4
2018-12-17T19:34:10.256Z,29.3
2018-12-17T19:36:05.538Z,29.3
2018-12-17T19:38:07.826Z,29.3
2018-12-17T19:40:05.709Z,29.3
2018-12-17T19:42:05.427Z,29.2
2018-12-17T19:44:07.648Z,29.2
2018-12-17T19:46:05.323Z,29.1
2018-12-17T19:48:05.016Z,29.2
2018-12-17T19:50:08.224Z,29.3
2018-12-17T19:52:06.930Z,29.3
2018-12-17T19:54:08.119Z,29.2
2018-12-17T19:56:05.938Z,29.3
2018-12-17T19:58:05.736Z,29.3
2018-12-17T20:00:05.388Z,29.2
2018-12-17T20:02:05.229Z,29.2
2018-12-17T20:04:06.166Z,29.2
2018-12-17T20:06:05.854Z,29.1
2018-12-17T20:08:13.147Z,29.1
2018-12-17T20:10:16.026Z,29.3
2018-12-17T20:12:08.241Z,29.2
2018-12-17T20:14:05.909Z,29.2
2018-12-17T20:16:05.527Z,29.2
2018-12-17T20:18:05.661Z,29.1
2018-12-17T20:20:05.621Z,29.1
2018-12-17T20:22:06.304Z,29.1
2018-12-17T20:24:06.040Z,29.2
2018-12-17T20:26:05.882Z,29.1
2018-12-17T20:28:05.551Z,29.1
2018-12-17T20:30:05.238Z,29.2
2018-12-17T20:32:06.078Z,29.2
2018-12-17T20:34:08.243Z,29.1
2018-12-17T20:36:08.488Z,29.1
2018-12-17T20:38:07.730Z,29.2
2018-12-17T20:40:08.222Z,29
2018-12-17T20:42:05.923Z,29.1
2018-12-17T20:44:05.612Z,29.1
2018-12-17T20:46:05.302Z,29.2
2018-12-17T20:48:05.048Z,29.2
2018-12-17T20:50:05.720Z,29.1
2018-12-17T20:52:05.403Z,29.1
2018-12-17T20:54:07.664Z,29.2
2018-12-17T20:56:05.382Z,29
2018-12-17T20:58:07.611Z,29.1
2018-12-17T21:00:05.334Z,29.1
2018-12-17T21:02:06.078Z,29
2018-12-17T21:04:05.349Z,29
2018-12-17T21:06:04.992Z,29
2018-12-17T21:08:05.669Z,29
2018-12-17T21:10:05.493Z,29
2018-12-17T21:12:05.716Z,29
2018-12-17T21:14:08.220Z,29
2018-12-17T21:16:05.924Z,29
2018-12-17T21:18:08.351Z,29
2018-12-17T21:20:05.137Z,29
2018-12-17T21:22:05.877Z,29
2018-12-17T21:24:05.090Z,29
2018-12-17T21:26:05.811Z,29.2
2018-12-17T21:28:05.783Z,29.1
2018-12-17T21:30:05.776Z,29.2
2018-12-17T21:32:05.236Z,29
2018-12-17T21:34:06.890Z,29.1
2018-12-17T21:36:05.717Z,29.1
2018-12-17T21:38:05.898Z,29
2018-12-17T21:40:05.601Z,29.1
2018-12-17T21:42:08.322Z,29.1
2018-12-17T21:44:05.064Z,29
2018-12-17T21:46:08.373Z,29.1
2018-12-17T21:48:05.065Z,29.1
2018-12-17T21:50:05.786Z,28.9
2018-12-17T21:52:05.486Z,29
2018-12-17T21:54:10.507Z,29.1
2018-12-17T21:56:05.273Z,29.1
2018-12-17T21:58:05.053Z,29.1
2018-12-17T22:00:05.311Z,29.1
2018-12-17T22:02:05.538Z,29.2
2018-12-17T22:04:05.457Z,29
2018-12-17T22:06:05.174Z,29
2018-12-17T22:08:10.424Z,29
2018-12-17T22:10:05.088Z,29
2018-12-17T22:12:07.861Z,29
2018-12-17T22:14:05.774Z,29
2018-12-17T22:16:05.446Z,29
2018-12-17T22:18:05.541Z,28.9
2018-12-17T22:20:08.514Z,29.1
2018-12-17T22:22:07.988Z,29.1
2018-12-17T22:24:05.152Z,29.1
2018-12-17T22:26:05.895Z,29
2018-12-17T22:28:06.551Z,29
2018-12-17T22:30:06.718Z,29
2018-12-17T22:32:09.469Z,28.8
2018-12-17T22:34:05.704Z,28.8
2018-12-17T22:36:05.490Z,28.9
2018-12-17T22:38:07.733Z,28.9
2018-12-17T22:40:09.330Z,29
2018-12-17T22:42:04.963Z,29
2018-12-17T22:44:05.658Z,29
2018-12-17T22:46:05.861Z,28.9
2018-12-17T22:48:08.042Z,29
2018-12-17T22:50:05.758Z,29
2018-12-17T22:52:08.467Z,29
2018-12-17T22:54:05.690Z,29
2018-12-17T22:56:10.932Z,29
2018-12-17T22:58:08.175Z,28.9
2018-12-17T23:00:05.180Z,28.9
2018-12-17T23:02:07.886Z,28.9
2018-12-17T23:04:05.101Z,28.9
2018-12-17T23:06:05.814Z,28.9
2018-12-17T23:08:08.119Z,29
2018-12-17T23:10:10.068Z,29
2018-12-17T23:12:05.235Z,29
2018-12-17T23:14:05.173Z,29
2018-12-17T23:16:05.884Z,29
2018-12-17T23:18:05.778Z,28.8
2018-12-17T23:20:05.514Z,29
2018-12-17T23:22:05.187Z,29
2018-12-17T23:24:06.165Z,29
2018-12-17T23:26:10.976Z,28.8
2018-12-17T23:28:05.168Z,28.8
2018-12-17T23:30:05.935Z,28.9
2018-12-17T23:32:07.620Z,28.9
2018-12-17T23:34:05.344Z,28.9
2018-12-17T23:36:05.029Z,28.9
2018-12-17T23:38:05.695Z,28.8
2018-12-17T23:40:05.442Z,28.9
2018-12-17T23:42:07.584Z,28.8
2018-12-17T23:44:05.281Z,29
2018-12-17T23:46:05.986Z,28.8
2018-12-17T23:48:05.193Z,28.8
2018-12-17T23:50:05.410Z,28.8
2018-12-17T23:52:07.683Z,28.9
2018-12-17T23:54:05.367Z,28.8
2018-12-17T23:56:05.060Z,28.8
2018-12-17T23:58:10.798Z,28.8
